Heat Index SAI AWOS Graphical Display Untitled Document
Ulysses Airport (ULS) Grant County, Kansas
320
23:44
18/01/23
07
N/A
N/A
30.28
N/A
3067
38(F), 3(C)
16(F), -9(C)
33 F
41%
CLR
10
N/A
N/A
N/A
23:44 zulu Wind 320 at 07 Knots, Altimeter 30.28
METAR KULS 232344Z AUTO 32007KT 10SM CLR 03/M08 A3028 A02
METAR:
FAA Disclaimer--Advisory Use ONLY, not for flight info-- 6/29/2009: FBO 620-356-4528 FUEL- 100LL $3.79self-serve or $3.90 for full service, Jet A $3.21 full service. AWOS 118.95mhz, 620-424-3747. Pilots with cellphones (smartphones) can now view awos at http://www.saiawos3.com/ULS
INFO:
Wind Direction:
Wind Speed:
Wind Gust:
Wind Variable:
Altimeter:
Dens Alt:
Elev:
Temp:
Dwpt:
Wind Chill
Rel Humidity:
Ceiling:
Visibility:
Prsnt Wea:
PCPN:
Remarks:
How to read the WebPage